createdAt,value
2018-01-24T00:00:46.529Z,2.4
2018-01-24T00:01:56.242Z,2.26
2018-01-24T00:03:05.957Z,2.34
2018-01-24T00:04:15.675Z,2.33
2018-01-24T00:05:25.657Z,2.33
2018-01-24T00:06:35.631Z,2.28
2018-01-24T00:07:45.618Z,2.3
2018-01-24T00:08:55.609Z,2.25
2018-01-24T00:10:05.331Z,2.26
2018-01-24T00:11:15.318Z,2.26
2018-01-24T00:12:25.304Z,2.3
2018-01-24T00:13:35.290Z,2.19
2018-01-24T00:14:45.007Z,2.19
2018-01-24T00:15:54.994Z,2.21
2018-01-24T00:17:04.197Z,2.16
2018-01-24T00:18:14.174Z,2.21
2018-01-24T00:19:23.954Z,2.18
2018-01-24T00:20:33.936Z,2.16
2018-01-24T00:21:43.916Z,2.18
2018-01-24T00:22:53.895Z,2.19
2018-01-24T00:24:03.608Z,2.18
2018-01-24T00:25:13.333Z,2.26
2018-01-24T00:26:23.052Z,2.25
2018-01-24T00:27:33.029Z,2.23
2018-01-24T00:28:42.752Z,2.32
2018-01-24T00:29:52.470Z,2.19
2018-01-24T00:31:02.460Z,2.28
2018-01-24T00:32:12.177Z,2.26
2018-01-24T00:33:22.266Z,2.16
2018-01-24T00:34:32.253Z,2.28
2018-01-24T00:35:42.234Z,2.28
2018-01-24T00:36:52.232Z,2.28
2018-01-24T00:38:01.954Z,2.32
2018-01-24T00:39:11.459Z,2.19
2018-01-24T00:40:21.493Z,2.36
2018-01-24T00:41:31.222Z,2.26
2018-01-24T00:42:40.677Z,2.34
2018-01-24T00:43:50.660Z,2.36
2018-01-24T00:45:00.642Z,2.43
2018-01-24T00:46:10.100Z,2.39
2018-01-24T00:47:19.814Z,2.37
2018-01-24T00:48:29.801Z,2.36
2018-01-24T00:49:39.784Z,2.4
2018-01-24T00:50:49.766Z,2.44
2018-01-24T00:51:59.745Z,2.41
2018-01-24T00:53:09.461Z,2.5
2018-01-24T00:54:19.180Z,2.51
2018-01-24T00:55:29.158Z,2.5
2018-01-24T00:56:39.212Z,2.5
2018-01-24T00:57:49.195Z,2.55
2018-01-24T00:58:58.649Z,2.57
2018-01-24T01:00:07.575Z,2.52
2018-01-24T01:01:17.298Z,2.62
2018-01-24T01:02:27.284Z,2.61
2018-01-24T01:03:37.263Z,2.47
2018-01-24T01:04:47.249Z,2.58
2018-01-24T01:05:56.964Z,2.58
2018-01-24T01:07:06.954Z,2.61
2018-01-24T01:08:17.038Z,2.52
2018-01-24T01:09:26.804Z,2.59
2018-01-24T01:10:36.524Z,2.51
2018-01-24T01:11:46.505Z,2.52
2018-01-24T01:12:56.226Z,2.52
2018-01-24T01:14:05.991Z,2.52
2018-01-24T01:15:15.718Z,2.52
2018-01-24T01:16:25.468Z,2.52
2018-01-24T01:17:35.186Z,2.52
2018-01-24T01:18:45.160Z,2.55
2018-01-24T01:19:54.879Z,2.55
2018-01-24T01:21:04.332Z,2.58
2018-01-24T01:22:14.317Z,2.5
2018-01-24T01:23:24.304Z,2.51
2018-01-24T01:24:33.756Z,2.55
2018-01-24T01:25:43.851Z,2.58
2018-01-24T01:26:53.837Z,2.57
2018-01-24T01:28:03.825Z,2.55
2018-01-24T01:29:13.549Z,2.54
2018-01-24T01:30:23.539Z,2.58
2018-01-24T01:31:33.254Z,2.58
2018-01-24T01:32:42.971Z,2.59
2018-01-24T01:33:52.958Z,2.55
2018-01-24T01:35:02.680Z,2.64
2018-01-24T01:36:12.683Z,2.55
2018-01-24T01:37:22.663Z,2.58
2018-01-24T01:38:32.643Z,2.61
2018-01-24T01:39:42.625Z,2.58
2018-01-24T01:40:52.342Z,2.59
2018-01-24T01:42:02.059Z,2.54
2018-01-24T01:43:11.776Z,2.58
2018-01-24T01:44:21.228Z,2.62
2018-01-24T01:45:31.237Z,2.65
2018-01-24T01:46:41.230Z,2.61
2018-01-24T01:47:51.222Z,2.64
2018-01-24T01:49:00.942Z,2.69
2018-01-24T01:50:10.975Z,2.7
2018-01-24T01:51:20.959Z,2.64
2018-01-24T01:52:30.686Z,2.7
2018-01-24T01:53:40.668Z,2.61
2018-01-24T01:54:50.703Z,2.72
2018-01-24T01:56:00.468Z,2.73
2018-01-24T01:57:10.190Z,2.72
2018-01-24T01:58:20.173Z,2.72
2018-01-24T01:59:29.889Z,2.68
2018-01-24T02:00:39.349Z,2.77
2018-01-24T02:01:49.331Z,2.76
2018-01-24T02:02:59.319Z,2.73
2018-01-24T02:04:08.773Z,2.65
2018-01-24T02:05:18.780Z,2.62
2018-01-24T02:06:28.501Z,2.57
2018-01-24T02:07:38.481Z,2.51
2018-01-24T02:08:48.201Z,2.52
2018-01-24T02:09:57.925Z,2.51
2018-01-24T02:11:07.642Z,2.52
2018-01-24T02:12:17.676Z,2.47
2018-01-24T02:13:27.654Z,2.47
2018-01-24T02:14:37.668Z,2.43
2018-01-24T02:15:47.386Z,2.36
2018-01-24T02:16:57.381Z,2.37
2018-01-24T02:18:07.374Z,2.36
2018-01-24T02:19:17.360Z,2.32
2018-01-24T02:20:27.079Z,2.43
2018-01-24T02:21:36.795Z,2.4
2018-01-24T02:22:46.780Z,2.36
2018-01-24T02:23:56.770Z,2.23
2018-01-24T02:25:06.754Z,2.23
2018-01-24T02:26:16.740Z,2.28
2018-01-24T02:27:26.724Z,2.26
2018-01-24T02:28:36.705Z,2.23
2018-01-24T02:29:46.160Z,2.19
2018-01-24T02:30:56.152Z,2.18
2018-01-24T02:32:05.340Z,2.3
2018-01-24T02:33:15.107Z,2.25
2018-01-24T02:34:25.095Z,2.25
2018-01-24T02:35:35.084Z,2.44
2018-01-24T02:36:45.067Z,2.34
2018-01-24T02:37:55.054Z,2.43
2018-01-24T02:39:05.044Z,2.39
2018-01-24T02:40:14.777Z,2.36
2018-01-24T02:41:24.559Z,2.41
2018-01-24T02:42:34.543Z,2.36
2018-01-24T02:43:44.543Z,2.43
2018-01-24T02:44:54.271Z,2.51
2018-01-24T02:46:03.519Z,2.47
2018-01-24T02:47:12.977Z,2.61
2018-01-24T02:48:22.972Z,2.62
2018-01-24T02:49:33.032Z,2.51
2018-01-24T02:50:43.026Z,2.62
2018-01-24T02:51:53.019Z,2.7
2018-01-24T02:53:02.208Z,2.7
2018-01-24T02:54:11.668Z,2.62
2018-01-24T02:55:21.405Z,2.73
2018-01-24T02:56:31.390Z,2.79
2018-01-24T02:57:40.846Z,2.76
2018-01-24T02:58:50.900Z,2.73
2018-01-24T03:00:00.883Z,2.82
2018-01-24T03:01:10.068Z,2.77
2018-01-24T03:02:20.051Z,2.8
2018-01-24T03:03:30.038Z,2.76
2018-01-24T03:04:39.756Z,2.79
2018-01-24T03:05:49.211Z,2.76
2018-01-24T03:06:58.924Z,2.64
2018-01-24T03:08:08.378Z,2.62
2018-01-24T03:09:17.831Z,2.64
2018-01-24T03:10:27.290Z,2.64
2018-01-24T03:11:37.268Z,2.57
2018-01-24T03:12:47.248Z,2.59
2018-01-24T03:13:57.226Z,2.58
2018-01-24T03:15:06.682Z,2.57
2018-01-24T03:16:16.752Z,2.59
2018-01-24T03:17:26.742Z,2.5
2018-01-24T03:18:36.735Z,2.5
2018-01-24T03:19:46.719Z,2.5
2018-01-24T03:20:56.705Z,2.5
2018-01-24T03:22:06.423Z,2.47
2018-01-24T03:23:16.141Z,2.55
2018-01-24T03:24:26.123Z,2.52
2018-01-24T03:25:36.100Z,2.43
2018-01-24T03:26:45.821Z,2.3
2018-01-24T03:27:55.809Z,2.34
2018-01-24T03:29:05.526Z,2.39
2018-01-24T03:30:15.514Z,2.36
2018-01-24T03:31:25.234Z,2.36
2018-01-24T03:32:35.229Z,2.34
2018-01-24T03:33:44.947Z,2.4
2018-01-24T03:34:54.664Z,2.33
2018-01-24T03:36:04.639Z,2.26
2018-01-24T03:37:14.628Z,2.23
2018-01-24T03:38:24.341Z,2.32
2018-01-24T03:39:34.057Z,2.28
2018-01-24T03:40:44.039Z,2.19
2018-01-24T03:41:54.026Z,2.22
2018-01-24T03:43:04.005Z,2.34
2018-01-24T03:44:13.988Z,2.33
2018-01-24T03:45:23.973Z,2.41
2018-01-24T03:46:33.700Z,2.5
2018-01-24T03:47:43.687Z,2.46
2018-01-24T03:48:53.666Z,2.54
2018-01-24T03:50:03.118Z,2.58
2018-01-24T03:51:12.833Z,2.55
2018-01-24T03:52:22.814Z,2.68
2018-01-24T03:53:32.844Z,2.72
2018-01-24T03:54:42.315Z,2.7
2018-01-24T03:55:52.298Z,2.72
2018-01-24T03:57:02.119Z,2.77
2018-01-24T03:58:11.861Z,2.94
2018-01-24T03:59:21.580Z,2.88
2018-01-24T04:03:24.064Z,2.9
2018-01-24T04:04:34.045Z,2.95
2018-01-24T04:05:43.760Z,3
2018-01-24T04:06:53.745Z,2.98
2018-01-24T04:08:03.730Z,3.08
2018-01-24T04:09:12.914Z,3.01
2018-01-24T04:10:22.654Z,3
2018-01-24T04:11:32.372Z,2.97
2018-01-24T04:12:42.359Z,3.01
2018-01-24T04:13:52.345Z,3.01
2018-01-24T04:15:02.062Z,3.03
2018-01-24T04:16:11.784Z,3.01
2018-01-24T04:17:21.762Z,3.01
2018-01-24T04:18:31.748Z,3
2018-01-24T04:19:41.464Z,3.09
2018-01-24T04:20:51.442Z,3
2018-01-24T04:22:01.425Z,3.05
2018-01-24T04:23:10.621Z,2.98
2018-01-24T04:24:20.343Z,2.93
2018-01-24T04:25:29.796Z,2.98
2018-01-24T04:26:39.512Z,2.97
2018-01-24T04:27:49.548Z,2.91
2018-01-24T04:28:59.531Z,2.94
2018-01-24T04:30:08.453Z,2.93
2018-01-24T04:31:18.169Z,2.93
2018-01-24T04:32:27.942Z,2.95
2018-01-24T04:33:37.925Z,2.97
2018-01-24T04:34:47.910Z,2.95
2018-01-24T04:35:57.888Z,2.98
2018-01-24T04:37:07.870Z,2.88
2018-01-24T04:38:17.604Z,2.91
2018-01-24T04:39:27.058Z,2.93
2018-01-24T04:40:37.038Z,2.98
2018-01-24T04:41:47.020Z,3
2018-01-24T04:42:57.000Z,2.98
2018-01-24T04:44:06.757Z,3.01
2018-01-24T04:45:16.479Z,2.88
2018-01-24T04:46:25.930Z,2.91
2018-01-24T04:47:35.910Z,2.88
2018-01-24T04:48:45.891Z,2.87
2018-01-24T04:49:55.973Z,2.93
2018-01-24T04:51:05.706Z,2.88
2018-01-24T04:52:15.424Z,2.9
2018-01-24T04:53:25.405Z,2.82
2018-01-24T04:54:35.121Z,2.87
2018-01-24T04:55:44.571Z,2.87
2018-01-24T04:56:54.554Z,2.9
2018-01-24T04:58:04.003Z,2.9
2018-01-24T04:59:13.719Z,2.9
2018-01-24T05:00:23.431Z,2.79
2018-01-24T05:01:33.148Z,2.69
2018-01-24T05:02:43.129Z,2.77
2018-01-24T05:03:53.108Z,2.77
2018-01-24T05:05:02.823Z,2.76
2018-01-24T05:06:12.540Z,2.77
2018-01-24T05:07:22.522Z,2.7
2018-01-24T05:08:32.239Z,2.65
2018-01-24T05:09:42.220Z,2.73
2018-01-24T05:10:52.254Z,2.72
2018-01-24T05:12:01.977Z,2.69
2018-01-24T05:13:12.052Z,2.62
2018-01-24T05:14:21.769Z,2.58
2018-01-24T05:15:31.488Z,2.57
2018-01-24T05:16:41.469Z,2.55
2018-01-24T05:17:51.456Z,2.64
2018-01-24T05:19:01.433Z,2.5
2018-01-24T05:20:10.894Z,2.51
2018-01-24T05:21:20.871Z,2.43
2018-01-24T05:22:30.587Z,2.44
2018-01-24T05:23:40.039Z,2.43
2018-01-24T05:24:49.807Z,2.37
2018-01-24T05:25:59.789Z,2.43
2018-01-24T05:27:09.775Z,2.43
2018-01-24T05:28:19.760Z,2.46
2018-01-24T05:29:29.743Z,2.47
2018-01-24T05:30:39.724Z,2.55
2018-01-24T05:31:49.705Z,2.58
2018-01-24T05:32:59.160Z,2.57
2018-01-24T05:34:08.875Z,2.61
2018-01-24T05:35:18.856Z,2.58
2018-01-24T05:36:28.892Z,2.62
2018-01-24T05:37:38.877Z,2.68
2018-01-24T05:38:48.593Z,2.69
2018-01-24T05:39:58.573Z,2.65
2018-01-24T05:41:07.500Z,2.61
2018-01-24T05:42:17.222Z,2.64
2018-01-24T05:43:27.210Z,2.65
2018-01-24T05:44:37.189Z,2.57
2018-01-24T05:45:46.909Z,2.51
2018-01-24T05:46:56.624Z,2.62
2018-01-24T05:48:06.610Z,2.58
2018-01-24T05:49:16.595Z,2.59
2018-01-24T05:50:26.637Z,2.55
2018-01-24T05:51:36.616Z,2.59
2018-01-24T05:52:46.598Z,2.59
2018-01-24T05:53:56.583Z,2.54
2018-01-24T05:55:06.303Z,2.57
2018-01-24T05:56:16.021Z,2.55
2018-01-24T05:57:26.003Z,2.47
2018-01-24T05:58:35.991Z,2.46
2018-01-24T05:59:45.973Z,2.5
2018-01-24T06:00:55.957Z,2.44
2018-01-24T06:02:05.410Z,2.43
2018-01-24T06:03:15.406Z,2.4
2018-01-24T06:04:25.124Z,2.41
2018-01-24T06:05:34.839Z,2.37
2018-01-24T06:06:44.821Z,2.33
2018-01-24T06:07:54.802Z,2.32
2018-01-24T06:09:04.252Z,2.37
2018-01-24T06:10:14.233Z,2.33
2018-01-24T06:11:24.216Z,2.23
2018-01-24T06:12:34.204Z,2.23
2018-01-24T06:13:44.193Z,2.3
2018-01-24T06:14:54.174Z,2.19
2018-01-24T06:16:03.628Z,2.18
2018-01-24T06:17:13.347Z,2.18
2018-01-24T06:18:23.441Z,2.1
2018-01-24T06:19:33.428Z,2.04
2018-01-24T06:20:43.411Z,1.98
2018-01-24T06:21:53.393Z,2.04
2018-01-24T06:23:03.112Z,2.1
2018-01-24T06:24:13.099Z,2.04
2018-01-24T06:25:23.081Z,1.98
2018-01-24T06:26:32.865Z,1.98
2018-01-24T06:27:42.858Z,2.01
2018-01-24T06:28:52.851Z,1.88
2018-01-24T06:30:02.568Z,2.05
2018-01-24T06:31:12.020Z,2
2018-01-24T06:32:22.113Z,2.08
2018-01-24T06:33:31.829Z,2.07
2018-01-24T06:34:41.281Z,2.01
2018-01-24T06:35:51.261Z,1.93
2018-01-24T06:37:01.240Z,1.95
2018-01-24T06:38:10.694Z,1.88
2018-01-24T06:39:20.411Z,1.85
2018-01-24T06:40:30.405Z,1.75
2018-01-24T06:41:40.382Z,1.67
2018-01-24T06:42:50.362Z,1.64
2018-01-24T06:44:00.348Z,1.68
2018-01-24T06:45:10.063Z,1.63
2018-01-24T06:46:19.833Z,1.57
2018-01-24T06:47:29.546Z,1.58
2018-01-24T06:48:39.269Z,1.57
2018-01-24T06:49:49.254Z,1.57
2018-01-24T06:50:58.967Z,1.57
2018-01-24T06:52:08.425Z,1.53
2018-01-24T06:53:18.410Z,1.58
2018-01-24T06:54:28.396Z,1.56
2018-01-24T06:55:38.456Z,1.52
2018-01-24T06:56:47.906Z,1.48
2018-01-24T06:57:57.623Z,1.56
2018-01-24T06:59:07.342Z,1.49
2018-01-24T07:00:16.797Z,1.5
2018-01-24T07:01:26.513Z,1.5
2018-01-24T07:02:36.496Z,1.52
2018-01-24T07:03:46.472Z,1.4
2018-01-24T07:04:56.458Z,1.32
2018-01-24T07:06:05.909Z,1.27
2018-01-24T07:07:15.889Z,1.21
2018-01-24T07:08:25.869Z,1.21
2018-01-24T07:09:35.877Z,1.16
2018-01-24T07:10:45.862Z,1.28
2018-01-24T07:11:55.840Z,1.39
2018-01-24T07:13:05.293Z,1.45
2018-01-24T07:14:14.480Z,1.52
2018-01-24T07:15:23.927Z,1.56
2018-01-24T07:16:33.987Z,1.5
2018-01-24T07:17:43.969Z,1.56
2018-01-24T07:18:53.946Z,1.7
2018-01-24T07:20:03.926Z,1.6
2018-01-24T07:21:13.381Z,1.7
2018-01-24T07:22:23.372Z,1.61
2018-01-24T07:23:32.825Z,1.71
2018-01-24T07:24:42.010Z,1.78
2018-01-24T07:25:52.042Z,1.74
2018-01-24T07:27:02.134Z,1.7
2018-01-24T07:28:12.112Z,1.75
2018-01-24T07:29:22.092Z,1.6
2018-01-24T07:30:31.806Z,1.61
2018-01-24T07:31:41.257Z,1.68
2018-01-24T07:32:51.240Z,1.68
2018-01-24T07:34:01.229Z,1.64
2018-01-24T07:35:11.365Z,1.64
2018-01-24T07:36:21.452Z,1.57
2018-01-24T07:37:31.438Z,1.57
2018-01-24T07:38:41.518Z,1.56
2018-01-24T07:39:51.553Z,1.58
2018-01-24T07:41:01.276Z,1.49
2018-01-24T07:42:10.995Z,1.39
2018-01-24T07:43:20.984Z,1.27
2018-01-24T07:44:31.010Z,1.18
2018-01-24T07:45:40.725Z,1.07
2018-01-24T07:46:50.441Z,1.04
2018-01-24T07:48:00.430Z,1.06
2018-01-24T07:49:10.409Z,1.09
2018-01-24T07:50:20.232Z,1.07
2018-01-24T07:51:30.214Z,1.12
2018-01-24T07:52:40.289Z,1.21
2018-01-24T07:53:50.005Z,1.21
2018-01-24T07:54:59.987Z,1.3
2018-01-24T07:56:09.704Z,1.36
2018-01-24T07:57:19.698Z,1.43
2018-01-24T07:58:29.677Z,1.39
2018-01-24T07:59:39.661Z,1.39
2018-01-24T08:00:49.644Z,1.25
2018-01-24T08:01:59.636Z,1.18
2018-01-24T08:03:09.623Z,1.1
2018-01-24T08:04:19.403Z,1.07
2018-01-24T08:05:29.392Z,0.99
2018-01-24T08:06:39.123Z,1.03
2018-01-24T08:07:48.847Z,0.88
2018-01-24T08:08:58.835Z,0.81
2018-01-24T08:10:08.820Z,0.47
2018-01-24T08:11:18.806Z,0.34
2018-01-24T08:12:28.530Z,0.45
2018-01-24T08:13:38.512Z,0.48
2018-01-24T08:14:48.227Z,0.39
2018-01-24T08:15:58.212Z,0.3
2018-01-24T08:17:07.928Z,0.2
2018-01-24T08:18:17.649Z,0.06
2018-01-24T08:19:27.367Z,0.01
2018-01-24T08:20:37.349Z,0.09
2018-01-24T08:21:47.058Z,0.06
2018-01-24T08:22:57.034Z,0.19
2018-01-24T08:24:06.488Z,0.24
2018-01-24T08:25:16.206Z,0.3
2018-01-24T08:26:26.194Z,0.42
2018-01-24T08:27:35.646Z,0.49
2018-01-24T08:28:45.367Z,0.58
2018-01-24T08:29:55.352Z,0.58
2018-01-24T08:31:04.698Z,0.61
2018-01-24T08:32:14.158Z,0.7
2018-01-24T08:33:24.138Z,0.84
2018-01-24T08:34:33.591Z,0.84
2018-01-24T08:35:43.572Z,0.92
2018-01-24T08:36:53.557Z,1.03
2018-01-24T08:38:03.299Z,0.95
2018-01-24T08:39:12.766Z,1.07
2018-01-24T08:40:22.758Z,1.06
2018-01-24T08:41:32.213Z,1.22
2018-01-24T08:42:42.245Z,1.25
2018-01-24T08:43:52.024Z,1.32
2018-01-24T08:45:01.831Z,1.32
2018-01-24T08:46:11.546Z,1.39
2018-01-24T08:47:21.264Z,1.34
2018-01-24T08:48:31.354Z,1.46
2018-01-24T08:49:41.344Z,1.46
2018-01-24T08:50:51.061Z,1.57
2018-01-24T08:52:00.778Z,1.57
2018-01-24T08:53:10.498Z,1.63
2018-01-24T08:54:20.537Z,1.64
2018-01-24T08:55:30.254Z,1.63
2018-01-24T08:56:40.243Z,1.61
2018-01-24T08:57:50.234Z,1.71
2018-01-24T08:59:00.221Z,1.6
2018-01-24T09:00:10.209Z,1.67
2018-01-24T09:01:20.195Z,1.67
2018-01-24T09:02:30.181Z,1.66
2018-01-24T09:03:39.895Z,1.66
2018-01-24T09:04:49.617Z,1.64
2018-01-24T09:05:59.388Z,1.64
2018-01-24T09:07:08.842Z,1.6
2018-01-24T09:08:18.826Z,1.68
2018-01-24T09:09:28.807Z,1.63
2018-01-24T09:10:38.528Z,1.64
2018-01-24T09:11:48.355Z,1.64
2018-01-24T09:12:58.337Z,1.61
2018-01-24T09:14:08.065Z,1.64
2018-01-24T09:15:18.098Z,1.7
2018-01-24T09:16:28.092Z,1.76
2018-01-24T09:17:38.135Z,1.74
2018-01-24T09:18:47.884Z,1.84
2018-01-24T09:19:57.870Z,1.82
2018-01-24T09:21:07.592Z,1.84
2018-01-24T09:22:17.574Z,1.89
2018-01-24T09:23:27.572Z,1.84
2018-01-24T09:24:37.025Z,1.84
2018-01-24T09:25:47.004Z,1.84
2018-01-24T09:26:56.987Z,1.88
2018-01-24T09:28:06.478Z,1.84
2018-01-24T09:29:16.471Z,1.89
2018-01-24T09:30:26.458Z,1.85
2018-01-24T09:31:36.441Z,1.92
2018-01-24T09:32:46.160Z,1.82
2018-01-24T09:33:55.892Z,1.89
2018-01-24T09:35:05.348Z,1.85
2018-01-24T09:36:15.338Z,1.85
2018-01-24T09:37:25.317Z,1.81
2018-01-24T09:38:35.294Z,1.82
2018-01-24T09:39:45.017Z,1.78
2018-01-24T09:40:54.740Z,1.7
2018-01-24T09:42:04.723Z,1.76
2018-01-24T09:43:14.176Z,1.75
2018-01-24T09:44:23.630Z,1.78
2018-01-24T09:45:33.355Z,1.76
2018-01-24T09:46:43.074Z,1.71
2018-01-24T09:47:53.064Z,1.75
2018-01-24T09:49:02.522Z,1.74
2018-01-24T09:50:12.513Z,1.74
2018-01-24T09:51:22.266Z,1.81
2018-01-24T09:52:31.988Z,1.76
2018-01-24T09:53:41.714Z,1.75
2018-01-24T09:54:51.170Z,1.74
2018-01-24T09:56:00.892Z,1.82
2018-01-24T09:57:10.609Z,1.81
2018-01-24T09:58:20.577Z,1.79
2018-01-24T09:59:30.294Z,1.84
2018-01-24T10:00:40.285Z,1.86
2018-01-24T10:01:50.268Z,1.89
2018-01-24T10:02:59.989Z,1.86
2018-01-24T10:04:09.838Z,1.85
2018-01-24T10:05:19.554Z,1.85
2018-01-24T10:06:29.538Z,1.93
2018-01-24T10:07:39.572Z,1.95
2018-01-24T10:08:49.576Z,1.98
2018-01-24T10:09:59.567Z,1.82
2018-01-24T10:11:08.755Z,1.92
2018-01-24T10:12:18.742Z,2.01
2018-01-24T10:13:28.730Z,2
2018-01-24T10:14:38.721Z,2.01
2018-01-24T10:15:48.696Z,2.08
2018-01-24T10:16:58.679Z,2.05
2018-01-24T10:18:08.452Z,2.15
2018-01-24T10:19:18.441Z,2.14
2018-01-24T10:20:28.425Z,2.14
2018-01-24T10:21:38.410Z,2.22
2018-01-24T10:22:48.132Z,2.25
2018-01-24T10:23:58.120Z,2.21
2018-01-24T10:25:07.394Z,2.41
2018-01-24T10:26:17.381Z,2.25
2018-01-24T10:27:26.832Z,2.22
2018-01-24T10:28:36.289Z,2.37
2018-01-24T10:29:46.024Z,2.36
2018-01-24T10:30:56.009Z,2.41
2018-01-24T10:32:05.780Z,2.37
2018-01-24T10:33:15.498Z,2.39
2018-01-24T10:34:25.482Z,2.43
2018-01-24T10:35:35.210Z,2.43
2018-01-24T10:36:45.197Z,2.5
2018-01-24T10:37:54.912Z,2.52
2018-01-24T10:39:04.897Z,2.5
2018-01-24T10:40:14.132Z,2.46
2018-01-24T10:41:24.118Z,2.44
2018-01-24T10:42:33.837Z,2.55
2018-01-24T10:43:43.555Z,2.54
2018-01-24T10:44:53.685Z,2.55
2018-01-24T10:46:03.138Z,2.57
2018-01-24T10:47:13.117Z,2.55
2018-01-24T10:48:22.844Z,2.59
2018-01-24T10:49:32.836Z,2.58
2018-01-24T10:50:42.642Z,2.65
2018-01-24T10:51:52.625Z,2.7
2018-01-24T10:53:02.346Z,2.76
2018-01-24T10:54:12.338Z,2.76
2018-01-24T10:55:22.325Z,2.8
2018-01-24T10:56:32.038Z,2.97
2018-01-24T10:57:42.020Z,2.95
2018-01-24T10:58:51.741Z,2.98
2018-01-24T11:00:01.726Z,3
2018-01-24T11:01:11.712Z,3
2018-01-24T11:02:21.698Z,3.03
2018-01-24T11:03:31.152Z,3.16
2018-01-24T11:04:41.139Z,3.18
2018-01-24T11:05:51.125Z,3.24
2018-01-24T11:07:01.133Z,3.16
2018-01-24T11:08:10.844Z,3.18
2018-01-24T11:09:20.831Z,3.19
2018-01-24T11:10:30.813Z,3.26
2018-01-24T11:11:40.541Z,3.27
2018-01-24T11:12:50.523Z,3.34
2018-01-24T11:14:00.343Z,3.4
2018-01-24T11:15:10.094Z,3.49
2018-01-24T11:16:19.547Z,3.58
2018-01-24T11:17:29.599Z,3.49
2018-01-24T11:18:38.995Z,3.5
2018-01-24T11:19:48.503Z,3.56
2018-01-24T11:20:58.495Z,3.5
2018-01-24T11:22:08.215Z,3.59
2018-01-24T11:23:17.935Z,3.55
2018-01-24T11:24:27.428Z,3.56
2018-01-24T11:25:37.198Z,3.61
2018-01-24T11:26:47.193Z,3.59
2018-01-24T11:27:56.908Z,3.56
2018-01-24T11:29:06.363Z,3.63
2018-01-24T11:30:16.346Z,3.61
2018-01-24T11:31:26.332Z,3.64
2018-01-24T11:32:36.071Z,3.61
2018-01-24T11:33:45.816Z,3.64
2018-01-24T11:34:55.532Z,3.58
2018-01-24T11:36:05.284Z,3.67
2018-01-24T11:37:16.721Z,3.56
2018-01-24T11:38:26.702Z,3.55
2018-01-24T11:39:36.733Z,3.59
2018-01-24T11:40:46.447Z,3.53
2018-01-24T11:41:56.165Z,3.58
2018-01-24T11:43:06.162Z,3.58
2018-01-24T11:44:15.884Z,3.55
2018-01-24T11:45:25.343Z,3.56
2018-01-24T11:46:34.810Z,3.56
2018-01-24T11:47:44.793Z,3.48
2018-01-24T11:48:54.621Z,3.5
2018-01-24T11:50:04.626Z,3.5
2018-01-24T11:51:14.344Z,3.53
2018-01-24T11:52:24.067Z,3.52
2018-01-24T11:53:34.050Z,3.5
2018-01-24T11:54:44.140Z,3.56
2018-01-24T11:55:53.866Z,3.45
2018-01-24T11:57:03.330Z,3.59
2018-01-24T11:58:12.793Z,3.55
2018-01-24T11:59:22.514Z,3.43
2018-01-24T12:00:32.500Z,3.43
2018-01-24T12:01:42.486Z,3.41
2018-01-24T12:02:52.229Z,3.43
2018-01-24T12:04:02.218Z,3.43
2018-01-24T12:05:11.671Z,3.36
2018-01-24T12:06:21.830Z,3.31
2018-01-24T12:07:31.863Z,3.36
2018-01-24T12:08:41.580Z,3.34
2018-01-24T12:09:51.570Z,3.34
2018-01-24T12:11:01.031Z,3.33
2018-01-24T12:12:10.271Z,3.26
2018-01-24T12:13:19.991Z,3.36
2018-01-24T12:14:29.720Z,3.29
2018-01-24T12:15:39.711Z,3.29
2018-01-24T12:16:49.696Z,3.3
2018-01-24T12:17:59.727Z,3.34
2018-01-24T12:19:09.492Z,3.31
2018-01-24T12:20:19.260Z,3.26
2018-01-24T12:21:29.247Z,3.24
2018-01-24T12:22:38.976Z,3.22
2018-01-24T12:23:48.742Z,3.26
2018-01-24T12:24:58.199Z,3.21
2018-01-24T12:26:07.918Z,3.27
2018-01-24T12:27:17.637Z,3.21
2018-01-24T12:28:27.619Z,3.24
2018-01-24T12:29:37.443Z,3.34
2018-01-24T12:30:47.166Z,3.3
2018-01-24T12:31:57.148Z,3.33
2018-01-24T12:33:06.874Z,3.19
2018-01-24T12:34:16.597Z,3.24
2018-01-24T12:35:26.686Z,3.22
2018-01-24T12:36:36.676Z,3.26
2018-01-24T12:37:46.666Z,3.24
2018-01-24T12:38:56.655Z,3.15
2018-01-24T12:40:06.654Z,3.15
2018-01-24T12:41:16.423Z,3.19
2018-01-24T12:42:26.402Z,3.19
2018-01-24T12:43:36.389Z,3.13
2018-01-24T12:44:45.892Z,3.13
2018-01-24T12:45:55.347Z,3.11
2018-01-24T12:47:05.123Z,2.98
2018-01-24T12:48:14.847Z,3.03
2018-01-24T12:49:24.828Z,2.9
2018-01-24T12:50:34.573Z,2.97
2018-01-24T12:51:44.293Z,2.97
2018-01-24T12:52:54.325Z,2.91
2018-01-24T12:54:03.517Z,2.87
2018-01-24T12:55:13.500Z,2.79
2018-01-24T12:56:23.484Z,2.77
2018-01-24T12:57:33.473Z,2.64
2018-01-24T12:58:43.504Z,2.61
2018-01-24T12:59:53.497Z,2.62
2018-01-24T13:01:03.269Z,2.58
2018-01-24T13:02:12.986Z,2.58
2018-01-24T13:03:22.452Z,2.5
2018-01-24T13:04:32.540Z,2.5
2018-01-24T13:05:42.551Z,2.5
2018-01-24T13:06:52.542Z,2.52
2018-01-24T13:08:02.122Z,2.51
2018-01-24T13:09:12.167Z,2.5
2018-01-24T13:10:21.672Z,2.39
2018-01-24T13:11:31.660Z,2.37
2018-01-24T13:12:41.400Z,2.34
2018-01-24T13:13:51.125Z,2.39
2018-01-24T13:15:01.114Z,2.37
2018-01-24T13:16:10.617Z,2.37
2018-01-24T13:17:20.603Z,2.39
2018-01-24T13:18:30.645Z,2.22
2018-01-24T13:19:40.677Z,2.19
2018-01-24T13:20:50.665Z,2.21
2018-01-24T13:22:00.704Z,2.18
2018-01-24T13:23:10.429Z,2.22
2018-01-24T13:24:20.421Z,2.28
2018-01-24T13:25:30.405Z,2.15
2018-01-24T13:26:40.441Z,2.28
2018-01-24T13:27:50.484Z,2.22
2018-01-24T13:29:00.473Z,2.34
2018-01-24T13:30:10.194Z,2.33
2018-01-24T13:31:20.173Z,2.33
2018-01-24T13:32:30.157Z,2.39
2018-01-24T13:33:39.980Z,2.43
2018-01-24T13:34:49.434Z,2.36
2018-01-24T13:35:59.153Z,2.43
2018-01-24T13:37:08.880Z,2.43
2018-01-24T13:38:18.897Z,2.44
2018-01-24T13:39:28.730Z,2.46
2018-01-24T13:40:38.721Z,2.47
2018-01-24T13:41:48.440Z,2.46
2018-01-24T13:42:58.420Z,2.46
2018-01-24T13:44:07.874Z,2.44
2018-01-24T13:45:17.642Z,2.4
2018-01-24T13:46:27.360Z,2.39
2018-01-24T13:47:37.341Z,2.4
2018-01-24T13:48:47.066Z,2.36
2018-01-24T13:49:57.045Z,2.41
2018-01-24T13:51:07.068Z,2.36
2018-01-24T13:52:17.049Z,2.36
2018-01-24T13:53:27.029Z,2.4
2018-01-24T13:54:37.019Z,2.43
2018-01-24T13:55:46.734Z,2.43
2018-01-24T13:56:56.716Z,2.39
2018-01-24T13:58:06.435Z,2.51
2018-01-24T13:59:16.160Z,2.46
2018-01-24T14:00:26.146Z,2.46
2018-01-24T14:01:36.128Z,2.44
2018-01-24T14:02:46.154Z,2.5
2018-01-24T14:03:55.609Z,2.41
2018-01-24T14:05:05.323Z,2.5
2018-01-24T14:06:15.311Z,2.51
2018-01-24T14:07:25.294Z,2.47
2018-01-24T14:08:35.279Z,2.5
2018-01-24T14:09:45.271Z,2.41
2018-01-24T14:10:55.254Z,2.44
2018-01-24T14:12:04.446Z,2.47
2018-01-24T14:13:14.176Z,2.41
2018-01-24T14:14:24.158Z,2.5
2018-01-24T14:15:33.873Z,2.55
2018-01-24T14:16:43.896Z,2.47
2018-01-24T14:17:53.880Z,2.52
2018-01-24T14:19:03.596Z,2.51
2018-01-24T14:20:13.318Z,2.52
2018-01-24T14:21:23.301Z,2.57
2018-01-24T14:22:32.230Z,2.58
2018-01-24T14:23:41.948Z,2.58
2018-01-24T14:24:51.661Z,2.57
2018-01-24T14:26:01.386Z,2.61
2018-01-24T14:27:11.102Z,2.54
2018-01-24T14:28:20.824Z,2.68
2018-01-24T14:29:30.812Z,2.59
2018-01-24T14:30:40.805Z,2.65
2018-01-24T14:31:50.836Z,2.76
2018-01-24T14:33:00.553Z,2.68
2018-01-24T14:34:10.280Z,2.77
2018-01-24T14:35:20.264Z,2.87
2018-01-24T14:36:30.247Z,2.79
2018-01-24T14:37:40.234Z,2.76
2018-01-24T14:38:50.221Z,2.82
2018-01-24T14:39:59.941Z,2.8
2018-01-24T14:41:09.666Z,2.76
2018-01-24T14:42:19.653Z,2.76
2018-01-24T14:43:29.641Z,2.75
2018-01-24T14:44:39.623Z,2.75
2018-01-24T14:45:49.391Z,2.82
2018-01-24T14:46:59.170Z,2.79
2018-01-24T14:48:09.250Z,2.72
2018-01-24T14:49:19.017Z,2.87
2018-01-24T14:50:29.008Z,2.91
2018-01-24T14:51:39.000Z,2.88
2018-01-24T14:52:48.989Z,2.98
2018-01-24T14:53:58.448Z,3.01
2018-01-24T14:55:08.173Z,2.93
2018-01-24T14:56:17.905Z,2.97
2018-01-24T14:57:27.888Z,2.93
2018-01-24T14:58:37.350Z,2.94
2018-01-24T14:59:47.072Z,2.94
2018-01-24T15:00:56.789Z,2.95
2018-01-24T15:02:06.043Z,2.91
2018-01-24T15:03:16.028Z,3.03
2018-01-24T15:04:26.020Z,3.08
2018-01-24T15:05:36.015Z,3
2018-01-24T15:06:45.737Z,2.94
2018-01-24T15:07:55.455Z,3
2018-01-24T15:09:05.178Z,3.01
2018-01-24T15:10:14.897Z,3.01
2018-01-24T15:11:24.617Z,3.05
2018-01-24T15:12:34.335Z,3.05
2018-01-24T15:13:44.323Z,3.06
2018-01-24T15:14:54.303Z,2.98
2018-01-24T15:16:04.298Z,3.06
2018-01-24T15:17:14.011Z,3.06
2018-01-24T15:18:23.729Z,3.01
2018-01-24T15:19:33.536Z,3.09
2018-01-24T15:20:43.255Z,3.09
2018-01-24T15:21:53.251Z,3.08
2018-01-24T15:23:03.268Z,3.08
2018-01-24T15:24:13.252Z,3.09
2018-01-24T15:25:23.238Z,3.03
2018-01-24T15:26:33.233Z,3.15
2018-01-24T15:27:43.217Z,3.03
2018-01-24T15:28:52.672Z,3.09
2018-01-24T15:30:02.394Z,3.08
2018-01-24T15:31:12.117Z,3.09
2018-01-24T15:32:22.136Z,3.12
2018-01-24T15:33:31.828Z,3.03
2018-01-24T15:34:41.542Z,3.15
2018-01-24T15:35:51.527Z,3.18
2018-01-24T15:37:01.512Z,3.11